Saturday, January 20, 2018, 8:26 AM EST
Back to Local

KTAN, Taunton Municipal Airport

Location: East Taunton, MA, United States Lat: 41.883
Local Time: 8:26 AM EST (13:26 GMT) Lon: -71.017
Time Zone: US/Eastern Elev: 42 ft

Show me the last for .
Show Coded

Time T Td Feel RH Dir Speed Gust Alt SLP Vis Weather Sky Remarks
2018-01-20 07:52 38 24 28 56 240° 13 21 29.73 29.73 10 CLR None
2018-01-20 06:52 38 24 28 56 230° 12 20 29.74 29.73 10 CLR 6-hr Min Temp (7am): 26.1°F
6-hr Max Temp (7am): 37.9°F
2018-01-20 05:52 36 24 25 61 220° 7 20 29.76 29.76 10 CLR None
2018-01-20 04:52 35 23 30 61 200° 6 - 29.79 29.79 10 CLR None
2018-01-20 03:52 35 23 30 61 230° 6 - 29.83 29.82 10 CLR None
2018-01-20 01:52 31 20 26 63 170° 5 - 29.85 29.85 10 CLR None
2018-01-20 00:52 28 20 - 71 - Calm - 29.88 29.88 10 CLR 6-hr Min Temp (1am): 25.0°F
6-hr Max Temp (1am): 30.9°F
2018-01-19 23:52 28 20 - 71 - Calm - 29.91 29.91 10 CLR 24-hr Min Temp (12am): 18.0°F
24-hr Max Temp (12am): 36.0°F
2018-01-19 22:52 29 19 25 66 200° 3 - 29.94 29.94 10 CLR None
2018-01-19 21:52 30 19 25 63 240° 5 - 29.96 29.96 10 CLR None
2018-01-19 20:52 31 20 25 63 240° 6 - 29.97 29.96 10 OVC037 None
2018-01-19 19:52 29 19 25 66 250° 3 - 29.96 29.96 10 CLR None
2018-01-19 18:52 29 19 25 66 240° 3 - 29.94 29.94 10 BKN040 6-hr Min Temp (7pm): 28.9°F
6-hr Max Temp (7pm): 36.0°F
2018-01-19 17:52 32 18 29 55 250° 3 - 29.95 29.95 10 OVC040 None
2018-01-19 16:52 34 18 29 51 270° 6 - 29.95 29.95 10 CLR None
2018-01-19 15:52 35 19 31 51 260° 5 - 29.93 29.93 10 CLR None
2018-01-19 14:52 35 19 30 51 250° 6 - 29.93 29.93 10 CLR None
2018-01-19 13:52 36 19 30 49 280° 8 - 29.91 29.91 10 CLR None
2018-01-19 12:52 34 18 28 51 Variable 7 - 29.93 29.93 10 CLR 6-hr Min Temp (1pm): 19.9°F
6-hr Max Temp (1pm): 35.1°F
2018-01-19 11:52 33 18 27 53 280° 7 - 29.95 29.95 10 FEW032 None
2018-01-19 10:52 31 17 24 55 270° 7 - 29.98 29.98 10 BKN033 None
2018-01-19 09:52 28 17 22 62 280° 6 - 30.00 30.00 9 CLR None
2018-01-19 08:52 25 17 18 71 Variable 6 - 30.00 30.00 8 BKN043 None

Support USWX by starting your Amazon purchase here.